Time;durP1;ratioP1;P1;durP2;ratioP2;P2;SDS_P1;SDS_P2;PMS_P1;PMS_P2;Temp;Humidity;BMP_temperature;BMP_pressure;BME280_temperature;BME280_humidity;BME280_pressure;Samples;Min_cycle;Max_cycle;Signal;HPM_P1;HPM_P2
2023/06/06 00:01:09;;;;;;;;;;;;;;;19.75;86.65;101205.94;5016567;28;20370;-82
2023/06/06 00:03:36;;;;;;;;;;;;;;;19.64;87.26;101188.34;4999765;28;20159;-82
2023/06/06 00:06:04;;;;;;;;;;;;;;;19.73;87.34;101210.66;5006011;28;20014;-80
2023/06/06 00:08:42;;;;;;;;;;;;;;;19.73;87.65;101207.13;4983293;28;19929;-78
2023/06/06 00:11:10;;;;;;;;;;;;;;;19.73;87.56;101210.66;5013751;28;20120;-81
2023/06/06 00:13:40;;;;;;;;;;;;;;;19.75;87.52;101200.56;5000255;28;19936;-80
2023/06/06 00:16:07;;;;;;;;;;;;;;;19.73;87.59;101199.91;4995051;28;19943;-80
2023/06/06 00:18:33;;;;;;;;;;;;;;;19.76;87.70;101202.25;5005647;28;20363;-79
2023/06/06 00:21:00;;;;;;;;;;;;;;;19.81;86.12;101202.53;4981679;28;20329;-79
2023/06/06 00:23:29;;;;;;;;;;;;;;;19.79;86.21;101204.56;4999899;28;20213;-82
2023/06/06 00:25:58;;;;;;;;;;;;;;;19.79;86.55;101199.19;4982352;28;20260;-80
2023/06/06 00:28:30;;;;;;;;;;;;;;;19.79;86.36;101190.25;4987895;28;20408;-79
2023/06/06 00:30:58;;;;;;;;;;;;;;;19.74;86.89;101195.38;5013972;28;19979;-79
2023/06/06 00:33:28;;;;;;;;;;;;;;;19.75;86.53;101192.47;4980250;28;19951;-81
2023/06/06 00:36:05;;;;;;;;;;;;;;;19.80;85.74;101194.63;4953195;28;20025;-83
2023/06/06 00:38:32;;;;;;;;;;;;;;;19.89;84.61;101192.69;4963210;28;19925;-80
2023/06/06 00:40:58;;;;;;;;;;;;;;;19.79;85.34;101196.47;4991802;28;19991;-82
2023/06/06 00:43:29;;;;;;;;;;;;;;;19.24;86.29;101108.75;4975292;28;20509;-81
2023/06/06 00:46:01;;;;;;;;;;;;;;;19.77;86.12;101195.00;4990828;28;19925;-79
2023/06/06 00:48:31;;;;;;;;;;;;;;;19.73;86.25;101199.91;4999369;28;20575;-81
2023/06/06 00:50:59;;;;;;;;;;;;;;;19.70;86.38;101194.88;5003852;28;20279;-80
2023/06/06 00:53:26;;;;;;;;;;;;;;;19.70;86.00;101200.25;5005775;28;20306;-81
2023/06/06 00:55:57;;;;;;;;;;;;;;;19.67;86.82;101200.59;4976100;28;20086;-80
2023/06/06 00:58:26;;;;;;;;;;;;;;;19.66;87.01;101198.94;4986128;28;19968;-82
2023/06/06 01:01:00;;;;;;;;;;;;;;;19.07;87.29;101096.44;4997213;28;19933;-82
2023/06/06 01:03:27;;;;;;;;;;;;;;;19.68;86.65;101196.91;4998935;28;19976;-81
2023/06/06 01:05:57;;;;;;;;;;;;;;;19.69;86.68;101193.22;4981183;28;19925;-82
2023/06/06 01:08:24;;;;;;;;;;;;;;;19.73;85.66;101194.50;4958294;28;19925;-82
2023/06/06 01:10:52;;;;;;;;;;;;;;;19.71;85.65;101184.94;4963589;28;20394;-80
2023/06/06 01:13:26;;;;;;;;;;;;;;;19.64;86.75;101182.94;4986621;28;19983;-82
2023/06/06 01:16:12;;;;;;;;;;;;;;;19.66;86.52;101188.16;4953541;28;20436;-80
2023/06/06 01:18:48;;;;;;;;;;;;;;;19.66;86.17;101188.16;4979156;28;19929;-80
2023/06/06 01:21:15;;;;;;;;;;;;;;;19.70;85.85;101184.09;4958146;28;20227;-83
2023/06/06 01:23:45;;;;;;;;;;;;;;;19.69;86.02;101187.84;4965649;28;20018;-82
2023/06/06 01:26:22;;;;;;;;;;;;;;;19.74;85.37;101179.22;5002371;28;19925;-80
2023/06/06 01:28:52;;;;;;;;;;;;;;;19.54;85.72;101146.50;4999515;28;19929;-81
2023/06/06 01:31:23;;;;;;;;;;;;;;;19.68;85.72;101188.00;5017036;28;20366;-81
2023/06/06 01:34:01;;;;;;;;;;;;;;;19.67;85.76;101183.63;4989080;28;20117;-80
2023/06/06 01:36:40;;;;;;;;;;;;;;;19.34;86.09;101141.63;5001513;28;20015;-83
2023/06/06 01:39:09;;;;;;;;;;;;;;;19.69;84.90;101187.84;4987064;28;20452;-83
2023/06/06 01:41:37;;;;;;;;;;;;;;;19.68;85.33;101191.53;5005396;28;19956;-83
2023/06/06 01:44:07;;;;;;;;;;;;;;;19.66;85.58;101188.16;4987874;28;20616;-81
2023/06/06 01:46:35;;;;;;;;;;;;;;;19.64;85.46;101184.81;4976159;28;19935;-81
2023/06/06 01:49:02;;;;;;;;;;;;;;;19.63;85.35;101191.19;4975933;28;20303;-81
2023/06/06 01:51:29;;;;;;;;;;;;;;;19.69;84.86;101187.84;5006634;28;19946;-82
2023/06/06 01:53:57;;;;;;;;;;;;;;;19.68;84.41;101183.44;4998815;28;19925;-82
2023/06/06 01:56:25;;;;;;;;;;;;;;;19.65;85.07;101186.47;5000367;28;20014;-79
2023/06/06 01:58:54;;;;;;;;;;;;;;;19.63;85.67;101181.25;5010011;28;20308;-82
2023/06/06 02:01:21;;;;;;;;;;;;;;;19.59;85.01;101179.97;4960614;28;19960;-82
2023/06/06 02:03:48;;;;;;;;;;;;;;;19.55;85.46;101180.50;5025358;28;20025;-82
2023/06/06 02:06:15;;;;;;;;;;;;;;;19.54;85.32;101181.50;5023213;28;20442;-82
2023/06/06 02:08:41;;;;;;;;;;;;;;;19.58;85.00;101174.75;5025814;28;19929;-81
2023/06/06 02:11:10;;;;;;;;;;;;;;;19.56;84.83;101176.78;5017798;28;20023;-81
2023/06/06 02:13:41;;;;;;;;;;;;;;;19.60;84.18;101176.25;5021435;28;19928;-79
2023/06/06 02:16:08;;;;;;;;;;;;;;;19.52;85.04;101168.25;5015877;28;19933;-81
2023/06/06 02:18:44;;;;;;;;;;;;;;;19.47;85.73;101173.34;5037252;28;20197;-82
2023/06/06 02:21:15;;;;;;;;;;;;;;;19.48;85.80;101169.63;5031911;28;20302;-81
2023/06/06 02:23:42;;;;;;;;;;;;;;;19.45;85.62;101170.00;5027378;28;19928;-80
2023/06/06 02:26:09;;;;;;;;;;;;;;;19.47;85.72;101167.97;5028753;28;19924;-82
2023/06/06 02:28:35;;;;;;;;;;;;;;;19.44;85.65;101173.69;5034486;28;19956;-79
2023/06/06 02:31:09;;;;;;;;;;;;;;;19.39;86.08;101171.56;5017517;28;19925;-80
2023/06/06 02:33:37;;;;;;;;;;;;;;;19.40;86.01;101172.38;5018710;28;20024;-81
2023/06/06 02:36:04;;;;;;;;;;;;;;;19.42;85.32;101171.19;4988371;28;19929;-80
2023/06/06 02:38:31;;;;;;;;;;;;;;;19.21;84.53;101115.31;4996145;28;20046;-81
2023/06/06 02:41:00;;;;;;;;;;;;;;;19.47;85.30;101173.34;4999178;28;20699;-80
2023/06/06 02:43:26;;;;;;;;;;;;;;;19.50;84.55;101172.16;4986929;28;20406;-80
2023/06/06 02:45:53;;;;;;;;;;;;;;;19.51;84.62;101169.25;4978214;28;19933;-80
2023/06/06 02:48:20;;;;;;;;;;;;;;;19.52;84.61;101170.94;4979883;28;20663;-81
2023/06/06 02:50:47;;;;;;;;;;;;;;;19.52;83.89;101176.31;5006340;28;19925;-81
2023/06/06 02:53:15;;;;;;;;;;;;;;;19.43;84.93;101172.84;4976962;28;20090;-80
2023/06/06 02:55:44;;;;;;;;;;;;;;;19.53;84.33;101177.16;4993811;28;20244;-81
2023/06/06 02:58:28;;;;;;;;;;;;;;;19.48;84.38;101175.00;4989555;28;19932;-81
2023/06/06 03:00:56;;;;;;;;;;;;;;;19.51;83.83;101173.81;4953645;28;20011;-81
2023/06/06 03:03:23;;;;;;;;;;;;;;;19.50;84.00;101177.53;5001581;28;19993;-81
2023/06/06 03:05:51;;;;;;;;;;;;;;;19.48;83.79;101174.19;5034157;28;19967;-81
2023/06/06 03:08:18;;;;;;;;;;;;;;;19.51;83.74;101174.63;5034951;28;19925;-79
2023/06/06 03:10:48;;;;;;;;;;;;;;;19.49;83.53;101176.69;5033261;28;20019;-81
2023/06/06 03:13:15;;;;;;;;;;;;;;;19.55;83.70;101180.50;5034057;28;19928;-81
2023/06/06 03:15:44;;;;;;;;;;;;;;;19.53;83.10;101183.38;5037076;28;19947;-80
2023/06/06 03:18:18;;;;;;;;;;;;;;;19.54;83.02;101186.91;5035352;28;20287;-80
2023/06/06 03:20:45;;;;;;;;;;;;;;;19.52;83.11;101191.66;5032941;28;20256;-81
2023/06/06 03:23:12;;;;;;;;;;;;;;;19.51;83.09;101190.78;5034797;28;19924;-80
2023/06/06 03:25:43;;;;;;;;;;;;;;;19.50;83.21;101193.69;5039454;28;20451;-80
2023/06/06 03:28:12;;;;;;;;;;;;;;;19.39;83.80;101187.72;5026948;28;19924;-82
2023/06/06 03:30:38;;;;;;;;;;;;;;;19.42;83.84;101187.34;5022115;28;19936;-81
2023/06/06 03:33:08;;;;;;;;;;;;;;;19.10;83.90;101131.06;5011029;28;20675;-81
2023/06/06 03:35:40;;;;;;;;;;;;;;;19.41;84.35;101185.66;5029781;28;19931;-80
2023/06/06 03:38:06;;;;;;;;;;;;;;;19.39;84.53;101179.63;5023748;28;20334;-81
2023/06/06 03:40:33;;;;;;;;;;;;;;;19.38;84.60;101179.81;5032670;28;19925;-80
2023/06/06 03:43:00;;;;;;;;;;;;;;;19.40;84.15;101184.00;5031797;28;20463;-80
2023/06/06 03:45:26;;;;;;;;;;;;;;;19.43;83.77;101183.63;5027056;28;19924;-80
2023/06/06 03:47:53;;;;;;;;;;;;;;;19.47;83.88;101184.13;5030327;28;19925;-81
2023/06/06 03:50:21;;;;;;;;;;;;;;;19.47;83.70;101177.88;5037770;28;19955;-81
2023/06/06 03:52:48;;;;;;;;;;;;;;;19.53;83.28;101177.16;5030324;28;20046;-79
2023/06/06 03:55:14;;;;;;;;;;;;;;;19.48;84.23;101175.00;5038018;28;20148;-82
2023/06/06 03:57:41;;;;;;;;;;;;;;;19.48;83.94;101176.88;5031731;28;19987;-80
2023/06/06 04:00:13;;;;;;;;;;;;;;;19.50;82.91;101175.66;5022358;28;20015;-79
2023/06/06 04:02:46;;;;;;;;;;;;;;;19.47;83.09;101169.78;5033684;28;19931;-80
2023/06/06 04:05:13;;;;;;;;;;;;;;;19.43;83.70;101178.25;5031853;28;20293;-79
2023/06/06 04:07:40;;;;;;;;;;;;;;;19.45;84.16;101179.94;5035225;28;20302;-79
2023/06/06 04:10:07;;;;;;;;;;;;;;;19.45;83.70;101185.31;5036503;28;19928;-82
2023/06/06 04:12:34;;;;;;;;;;;;;;;19.48;84.04;101183.09;5029009;28;20182;-83
2023/06/06 04:15:00;;;;;;;;;;;;;;;19.52;83.66;101179.03;5034683;28;19971;-82
2023/06/06 04:17:27;;;;;;;;;;;;;;;19.56;83.73;101174.09;5030000;28;19982;-80
2023/06/06 04:19:55;;;;;;;;;;;;;;;19.58;83.55;101172.06;5026984;28;20004;-81
2023/06/06 04:22:27;;;;;;;;;;;;;;;19.65;83.13;101171.16;5034553;28;20012;-81
2023/06/06 04:24:53;;;;;;;;;;;;;;;19.64;82.88;101172.19;5036272;28;20436;-81
2023/06/06 04:27:23;;;;;;;;;;;;;;;19.72;82.68;101165.91;5033076;28;19929;-80
2023/06/06 04:29:53;;;;;;;;;;;;;;;19.70;83.36;101167.94;5037380;28;19928;-79
2023/06/06 04:32:21;;;;;;;;;;;;;;;19.82;82.97;101171.03;5016390;28;20381;-80
2023/06/06 04:34:51;;;;;;;;;;;;;;;19.92;81.40;101165.38;5024207;28;20263;-82
2023/06/06 04:37:18;;;;;;;;;;;;;;;19.97;81.25;101168.34;5025385;28;19966;-81
2023/06/06 04:39:52;;;;;;;;;;;;;;;19.87;81.83;101178.56;4986767;28;20032;-79
2023/06/06 04:42:42;;;;;;;;;;;;;;;19.79;82.73;101161.47;4997080;28;20146;-83
2023/06/06 04:45:08;;;;;;;;;;;;;;;19.89;81.95;101171.16;5016478;28;20349;-81
2023/06/06 04:47:36;;;;;;;;;;;;;;;19.89;82.25;101176.53;5030706;28;19955;-80
2023/06/06 04:50:06;;;;;;;;;;;;;;;19.85;83.33;101171.53;5033211;28;19929;-80
2023/06/06 04:52:35;;;;;;;;;;;;;;;19.56;83.25;101114.84;5003158;28;20051;-82
2023/06/06 04:55:03;;;;;;;;;;;;;;;19.97;83.37;101179.13;5008022;28;20306;-81
2023/06/06 04:57:29;;;;;;;;;;;;;;;20.11;83.04;101164.84;4998745;28;19929;-80
2023/06/06 05:00:00;;;;;;;;;;;;;;;20.11;82.57;101170.22;5028497;28;19928;-83
2023/06/06 05:02:29;;;;;;;;;;;;;;;20.11;82.44;101167.53;5016361;28;19928;-80
2023/06/06 05:04:56;;;;;;;;;;;;;;;20.16;80.50;101169.69;5032085;28;19962;-80
2023/06/06 05:07:24;;;;;;;;;;;;;;;20.10;80.83;101165.88;5036906;28;19924;-83
2023/06/06 05:09:53;;;;;;;;;;;;;;;20.13;80.97;101176.28;5030323;28;20289;-83
2023/06/06 05:12:22;;;;;;;;;;;;;;;20.08;81.38;101175.16;5040563;28;19925;-77
2023/06/06 05:14:49;;;;;;;;;;;;;;;20.03;80.96;101181.94;5041286;28;20089;-82
2023/06/06 05:17:17;;;;;;;;;;;;;;;20.02;81.12;101179.41;5041087;28;19924;-83
2023/06/06 05:19:45;;;;;;;;;;;;;;;20.06;81.24;101181.56;5032188;28;19929;-81
2023/06/06 05:22:17;;;;;;;;;;;;;;;20.13;80.67;101178.97;5041722;28;20393;-80
2023/06/06 05:24:50;;;;;;;;;;;;;;;19.72;80.79;101122.81;5032681;28;19932;-82
2023/06/06 05:27:16;;;;;;;;;;;;;;;20.07;81.65;101179.69;5039947;28;19924;-83
2023/06/06 05:29:45;;;;;;;;;;;;;;;20.04;81.44;101182.75;5033353;28;20007;-82
2023/06/06 05:32:13;;;;;;;;;;;;;;;20.06;81.93;101180.72;5026004;28;19936;-80
2023/06/06 05:34:44;;;;;;;;;;;;;;;20.12;81.23;101177.28;5043056;28;19974;-82
2023/06/06 05:37:10;;;;;;;;;;;;;;;20.16;80.99;101183.97;5036537;28;20038;-81
2023/06/06 05:39:37;;;;;;;;;;;;;;;20.05;81.95;101184.47;5040383;28;20330;-81
2023/06/06 05:42:05;;;;;;;;;;;;;;;19.72;82.43;101128.19;5024527;28;20027;-82
2023/06/06 05:44:32;;;;;;;;;;;;;;;20.00;82.70;101176.94;5043788;28;19925;-79
2023/06/06 05:46:59;;;;;;;;;;;;;;;20.04;82.40;101180.06;5036678;28;19932;-83
2023/06/06 05:49:25;;;;;;;;;;;;;;;20.08;81.73;101175.16;5030984;28;20006;-80
2023/06/06 05:51:52;;;;;;;;;;;;;;;20.04;81.97;101182.75;5028155;28;19928;-80
2023/06/06 05:54:18;;;;;;;;;;;;;;;20.07;81.84;101185.09;5036140;28;20019;-80
2023/06/06 05:56:45;;;;;;;;;;;;;;;20.10;81.28;101186.56;5038100;28;20278;-80
2023/06/06 05:59:13;;;;;;;;;;;;;;;20.09;82.18;101190.31;5042265;28;19929;-80
2023/06/06 06:01:43;;;;;;;;;;;;;;;20.03;82.35;101186.50;5023692;28;20015;-81
2023/06/06 06:04:10;;;;;;;;;;;;;;;20.05;81.84;101192.53;5033436;28;19925;-80
2023/06/06 06:06:38;;;;;;;;;;;;;;;20.09;82.24;101199.22;5019035;28;20378;-81
2023/06/06 06:09:10;;;;;;;;;;;;;;;20.14;81.39;101191.41;5027407;28;20129;-83
2023/06/06 06:11:37;;;;;;;;;;;;;;;20.25;80.91;101195.53;5035908;28;20007;-80
2023/06/06 06:14:03;;;;;;;;;;;;;;;20.18;81.61;101192.72;5040901;28;20400;-81
2023/06/06 06:16:30;;;;;;;;;;;;;;;20.19;82.18;101194.38;5043506;28;19921;-82
2023/06/06 06:18:56;;;;;;;;;;;;;;;20.22;82.06;101199.44;5017051;28;20308;-82
2023/06/06 06:21:25;;;;;;;;;;;;;;;20.28;82.41;101197.84;5037597;28;19921;-83
2023/06/06 06:23:52;;;;;;;;;;;;;;;20.27;81.61;101202.41;5016246;28;19924;-81
2023/06/06 06:26:19;;;;;;;;;;;;;;;20.28;81.63;101204.06;5022790;28;20349;-82
2023/06/06 06:28:46;;;;;;;;;;;;;;;20.31;81.32;101205.56;5025745;28;19928;-82
2023/06/06 06:31:15;;;;;;;;;;;;;;;20.35;81.44;101208.72;5042781;28;20284;-81
2023/06/06 06:33:42;;;;;;;;;;;;;;;20.35;80.09;101209.56;5037887;28;19931;-81
2023/06/06 06:36:08;;;;;;;;;;;;;;;20.33;81.06;101216.16;5044283;28;19928;-82
2023/06/06 06:38:36;;;;;;;;;;;;;;;20.31;80.49;101220.91;5038313;28;19954;-80
2023/06/06 06:41:03;;;;;;;;;;;;;;;20.33;81.20;101217.00;5020292;28;19968;-83
2023/06/06 06:43:30;;;;;;;;;;;;;;;20.34;82.08;101223.22;5007435;28;19974;-81
2023/06/06 06:45:58;;;;;;;;;;;;;;;20.38;81.58;101219.97;5037171;28;19999;-82
2023/06/06 06:48:27;;;;;;;;;;;;;;;20.40;80.96;101217.91;5028085;28;19925;-80
2023/06/06 06:50:55;;;;;;;;;;;;;;;20.42;81.62;101215.88;5019872;28;19969;-81
2023/06/06 06:53:30;;;;;;;;;;;;;;;20.19;81.28;101172.81;5011756;28;20161;-82
2023/06/06 06:55:59;;;;;;;;;;;;;;;20.47;81.36;101223.41;5021488;28;19979;-82
2023/06/06 06:58:33;;;;;;;;;;;;;;;20.47;81.23;101220.72;5037778;28;19959;-80
2023/06/06 07:01:02;;;;;;;;;;;;;;;20.47;80.97;101223.41;5037020;28;20175;-82
2023/06/06 07:03:34;;;;;;;;;;;;;;;20.17;80.13;101171.34;5013600;28;19920;-83
2023/06/06 07:06:03;;;;;;;;;;;;;;;20.49;80.85;101219.50;5040602;28;20262;-84
2023/06/06 07:08:30;;;;;;;;;;;;;;;20.62;81.12;101226.97;5030965;28;19920;-83
2023/06/06 07:10:57;;;;;;;;;;;;;;;20.64;80.60;101221.41;5035934;28;19928;-81
2023/06/06 07:13:23;;;;;;;;;;;;;;;20.69;79.58;101214.41;5036646;28;19924;-81
2023/06/06 07:15:50;;;;;;;;;;;;;;;20.70;79.31;101213.41;5028530;28;20254;-81
2023/06/06 07:18:18;;;;;;;;;;;;;;;20.51;79.04;101176.19;5036170;28;19920;-82
2023/06/06 07:20:51;;;;;;;;;;;;;;;20.83;78.81;101211.88;5016929;28;19928;-80
2023/06/06 07:23:20;;;;;;;;;;;;;;;20.89;77.99;101205.72;4986774;28;20111;-82
2023/06/06 07:25:47;;;;;;;;;;;;;;;20.62;77.31;101167.63;5003911;28;19932;-84
2023/06/06 07:28:14;;;;;;;;;;;;;;;21.02;77.01;101221.22;5009330;28;20015;-84
2023/06/06 07:30:43;;;;;;;;;;;;;;;21.07;76.24;101216.94;5024902;28;19951;-81
2023/06/06 07:33:14;;;;;;;;;;;;;;;21.08;75.33;101215.91;5027318;28;20015;-82
2023/06/06 07:35:51;;;;;;;;;;;;;;;21.10;76.22;101221.94;5023962;28;19928;-82
2023/06/06 07:38:17;;;;;;;;;;;;;;;21.24;75.51;101225.63;5020688;28;19920;-82
2023/06/06 07:40:44;;;;;;;;;;;;;;;21.32;76.26;101222.81;5027955;28;20223;-83
2023/06/06 07:43:11;;;;;;;;;;;;;;;21.14;75.47;101179.19;5033810;28;19928;-83
2023/06/06 07:45:38;;;;;;;;;;;;;;;21.53;75.27;101210.34;5039548;28;19968;-80
2023/06/06 07:48:05;;;;;;;;;;;;;;;21.66;74.06;101206.94;5031742;28;20521;-82
2023/06/06 07:50:32;;;;;;;;;;;;;;;21.82;74.00;101217.47;5036231;28;20452;-80
2023/06/06 07:52:58;;;;;;;;;;;;;;;21.93;72.33;101214.22;5032165;28;19921;-84
2023/06/06 07:55:25;;;;;;;;;;;;;;;21.89;73.61;101217.50;5038971;28;20414;-83
2023/06/06 07:57:53;;;;;;;;;;;;;;;21.83;71.43;101213.75;5039766;28;19967;-83
2023/06/06 08:00:21;;;;;;;;;;;;;;;21.97;72.80;101215.50;5013593;28;20089;-81
2023/06/06 08:02:48;;;;;;;;;;;;;;;22.02;72.39;101214.09;4990372;28;19925;-82
2023/06/06 08:05:19;;;;;;;;;;;;;;;22.01;71.99;101220.53;4989399;28;20130;-81
2023/06/06 08:07:50;;;;;;;;;;;;;;;22.04;72.33;101218.28;4991271;28;20376;-82
2023/06/06 08:10:17;;;;;;;;;;;;;;;22.10;72.59;101222.03;4994156;28;20335;-81
2023/06/06 08:12:47;;;;;;;;;;;;;;;22.17;71.99;101220.22;5008789;28;19921;-81
2023/06/06 08:15:16;;;;;;;;;;;;;;;21.71;72.34;101142.34;5022271;28;19921;-83
2023/06/06 08:17:45;;;;;;;;;;;;;;;21.95;70.79;101179.72;4998952;28;19925;-82
2023/06/06 08:20:11;;;;;;;;;;;;;;;22.29;70.78;101220.53;5004290;28;19921;-79
2023/06/06 08:22:47;;;;;;;;;;;;;;;22.29;71.58;101213.25;5012239;28;20620;-82
2023/06/06 08:25:13;;;;;;;;;;;;;;;22.39;71.53;101218.31;5016200;28;19979;-80
2023/06/06 08:27:43;;;;;;;;;;;;;;;22.55;69.69;101209.00;5012515;28;19964;-81
2023/06/06 08:30:12;;;;;;;;;;;;;;;22.42;69.15;101184.63;5018944;28;20322;-82
2023/06/06 08:32:42;;;;;;;;;;;;;;;22.39;68.84;101216.44;5006723;28;20404;-82
2023/06/06 08:35:09;;;;;;;;;;;;;;;22.30;70.33;101214.91;5007749;28;19925;-82
2023/06/06 08:37:36;;;;;;;;;;;;;;;22.29;70.21;101223.25;5012244;28;19952;-80
2023/06/06 08:40:03;;;;;;;;;;;;;;;22.27;69.74;101219.91;5012687;28;19943;-81
2023/06/06 08:42:33;;;;;;;;;;;;;;;22.30;70.58;101216.78;5011900;28;20023;-84
2023/06/06 08:45:00;;;;;;;;;;;;;;;22.43;70.15;101216.88;5009070;28;19921;-83
2023/06/06 08:47:31;;;;;;;;;;;;;;;22.48;69.36;101219.00;5013908;28;20021;-82
2023/06/06 08:49:59;;;;;;;;;;;;;;;22.53;68.70;101211.94;4991965;28;19980;-82
2023/06/06 08:52:29;;;;;;;;;;;;;;;22.50;68.95;101219.59;4976422;28;20485;-82
2023/06/06 08:54:56;;;;;;;;;;;;;;;22.63;69.69;101208.03;4972532;28;20343;-79
2023/06/06 08:57:23;;;;;;;;;;;;;;;22.32;70.37;101147.94;4973835;28;20306;-82
2023/06/06 08:59:52;;;;;;;;;;;;;;;22.71;67.52;101215.97;4993342;28;20000;-82
2023/06/06 09:02:19;;;;;;;;;;;;;;;22.77;68.44;101216.00;4983178;28;20011;-83
2023/06/06 09:04:47;;;;;;;;;;;;;;;22.82;68.55;101212.69;4987296;28;19921;-82
2023/06/06 09:07:17;;;;;;;;;;;;;;;22.78;67.61;101212.25;4993713;28;20159;-82
2023/06/06 09:09:48;;;;;;;;;;;;;;;22.84;68.07;101213.31;4998725;28;19921;-82
2023/06/06 09:12:21;;;;;;;;;;;;;;;23.15;67.85;101207.38;4997525;28;19983;-82
2023/06/06 09:14:49;;;;;;;;;;;;;;;23.36;67.11;101213.69;4986564;28;19925;-82
2023/06/06 09:17:18;;;;;;;;;;;;;;;22.93;65.43;101117.34;5013514;28;20315;-83
2023/06/06 09:19:49;;;;;;;;;;;;;;;23.50;64.33;101201.84;5014207;28;19925;-82
2023/06/06 09:22:16;;;;;;;;;;;;;;;23.55;65.36;101202.03;5013527;28;20006;-81
2023/06/06 09:24:44;;;;;;;;;;;;;;;23.64;65.36;101203.50;4992764;28;19932;-82
2023/06/06 09:27:38;;;;;;;;;;;;;;;23.46;65.00;101132.84;4996363;28;19936;-82
2023/06/06 09:30:17;;;;;;;;;;;;;;;23.92;64.43;101202.47;4989573;28;20742;-81
2023/06/06 09:32:46;;;;;;;;;;;;;;;23.89;64.44;101197.50;4995660;28;19921;-81
2023/06/06 09:35:15;;;;;;;;;;;;;;;23.89;63.54;101197.50;4989394;28;19978;-80
2023/06/06 09:37:43;;;;;;;;;;;;;;;23.88;63.80;101201.22;5011297;28;20007;-83
2023/06/06 09:40:14;;;;;;;;;;;;;;;23.80;63.70;101196.03;4984230;28;20080;-81
2023/06/06 09:42:45;;;;;;;;;;;;;;;23.84;63.63;101189.16;5018296;28;19944;-83
2023/06/06 09:45:19;;;;;;;;;;;;;;;24.05;63.81;101191.59;5012655;28;20164;-82
2023/06/06 09:47:47;;;;;;;;;;;;;;;24.22;62.79;101193.88;5000542;28;19922;-82
2023/06/06 09:50:16;;;;;;;;;;;;;;;24.46;62.19;101195.91;5010849;28;19925;-83
2023/06/06 09:52:43;;;;;;;;;;;;;;;24.52;61.52;101191.53;4982373;28;19925;-81
2023/06/06 09:55:11;;;;;;;;;;;;;;;24.74;59.31;101183.94;4986521;28;20109;-82
2023/06/06 09:57:40;;;;;;;;;;;;;;;24.80;58.32;101182.22;4980063;28;19929;-83
2023/06/06 10:00:14;;;;;;;;;;;;;;;24.93;58.63;101171.31;4998720;28;19925;-82
2023/06/06 10:02:44;;;;;;;;;;;;;;;24.84;61.48;101173.44;4999494;28;19925;-83
2023/06/06 10:05:12;;;;;;;;;;;;;;;24.71;60.10;101174.34;4999608;28;20363;-81
2023/06/06 10:07:41;;;;;;;;;;;;;;;24.56;60.41;101173.75;5018707;28;20042;-81
2023/06/06 10:10:13;;;;;;;;;;;;;;;24.46;61.40;101176.91;5006569;28;19952;-81
2023/06/06 10:12:41;;;;;;;;;;;;;;;24.58;61.57;101168.94;5011054;28;20162;-80
2023/06/06 10:15:13;;;;;;;;;;;;;;;24.72;60.07;101167.00;5019145;28;20020;-81
2023/06/06 10:17:44;;;;;;;;;;;;;;;24.87;58.01;101172.97;5014836;28;20459;-81
2023/06/06 10:20:16;;;;;;;;;;;;;;;24.95;58.17;101164.59;5001022;28;20698;-81
2023/06/06 10:22:44;;;;;;;;;;;;;;;25.29;57.68;101159.81;5021382;28;20374;-79
2023/06/06 10:25:12;;;;;;;;;;;;;;;25.68;56.54;101157.81;4968521;28;20339;-81
2023/06/06 10:27:55;;;;;;;;;;;;;;;25.69;56.37;101161.38;4993758;28;19921;-80
2023/06/06 10:30:29;;;;;;;;;;;;;;;25.75;55.23;101164.03;4992555;28;20035;-81
2023/06/06 10:33:20;;;;;;;;;;;;;;;25.52;55.97;101169.25;5002327;28;19925;-83
2023/06/06 10:35:51;;;;;;;;;;;;;;;25.34;57.05;101162.69;4954895;28;20020;-82
2023/06/06 10:38:21;;;;;;;;;;;;;;;25.28;56.82;101163.56;4959852;28;19960;-81
2023/06/06 10:40:51;;;;;;;;;;;;;;;25.29;56.31;101153.53;5014056;28;19932;-83
2023/06/06 10:43:34;;;;;;;;;;;;;;;25.34;56.42;101157.25;5011587;28;20371;-82
2023/06/06 10:46:02;;;;;;;;;;;;;;;25.70;57.21;101154.84;4995549;28;20013;-86
2023/06/06 10:48:45;;;;;;;;;;;;;;;25.79;56.13;101161.69;4997200;28;19921;-80
2023/06/06 10:51:28;;;;;;;;;;;;;;;25.73;54.74;101125.34;5002199;28;19931;-81
2023/06/06 10:54:20;;;;;;;;;;;;;;;26.24;54.81;101158.75;5008827;28;20004;-83
2023/06/06 10:56:46;;;;;;;;;;;;;;;26.43;52.93;101154.09;5012112;28;19956;-80
2023/06/06 10:59:14;;;;;;;;;;;;;;;26.58;51.95;101145.56;5008234;28;19921;-79
2023/06/06 11:01:45;;;;;;;;;;;;;;;26.72;52.06;101159.84;5003448;28;19965;-81
2023/06/06 11:04:25;;;;;;;;;;;;;;;26.81;51.80;101155.75;5034712;28;20007;-81
2023/06/06 11:06:58;;;;;;;;;;;;;;;26.41;50.90;101115.41;5030525;28;20005;-83
2023/06/06 11:09:29;;;;;;;;;;;;;;;26.21;52.61;101108.31;5031975;28;19925;-82
2023/06/06 11:12:18;;;;;;;;;;;;;;;26.40;53.84;101151.84;5020301;28;20091;-82
2023/06/06 11:14:54;;;;;;;;;;;;;;;26.48;53.09;101151.53;5018824;28;19921;-81
2023/06/06 11:17:24;;;;;;;;;;;;;;;26.44;52.47;101150.34;5038595;28;20462;-80
2023/06/06 11:19:54;;;;;;;;;;;;;;;26.51;51.93;101148.38;5020083;28;20381;-81
2023/06/06 11:22:25;;;;;;;;;;;;;;;26.54;51.98;101150.66;5038434;28;19936;-82
2023/06/06 11:24:55;;;;;;;;;;;;;;;26.56;51.74;101147.72;5018834;28;19956;-81
2023/06/06 11:27:21;;;;;;;;;;;;;;;26.53;50.90;101149.00;5008733;28;19925;-82
2023/06/06 11:29:52;;;;;;;;;;;;;;;26.58;51.86;101140.97;5028170;28;20149;-82
2023/06/06 11:32:18;;;;;;;;;;;;;;;26.77;52.30;101144.47;5020931;28;19921;-82
2023/06/06 11:34:45;;;;;;;;;;;;;;;26.64;50.45;101147.38;5019269;28;20295;-82
2023/06/06 11:37:13;;;;;;;;;;;;;;;26.80;52.25;101144.03;5020586;28;20015;-80
2023/06/06 11:39:40;;;;;;;;;;;;;;;26.96;50.67;101142.53;5040909;28;20314;-81
2023/06/06 11:42:15;;;;;;;;;;;;;;;26.97;49.85;101138.75;5041570;28;19921;-82
2023/06/06 11:44:42;;;;;;;;;;;;;;;26.95;50.09;101135.44;5023377;28;19921;-80
2023/06/06 11:47:09;;;;;;;;;;;;;;;26.85;49.87;101132.44;5015076;28;19929;-80
2023/06/06 11:49:43;;;;;;;;;;;;;;;26.74;49.89;101131.31;5024335;28;19921;-81
2023/06/06 11:52:10;;;;;;;;;;;;;;;26.78;50.33;101128.97;5003308;28;20290;-81
2023/06/06 11:54:39;;;;;;;;;;;;;;;26.78;50.25;101123.53;4994492;28;19928;-82
2023/06/06 11:57:08;;;;;;;;;;;;;;;26.64;50.68;101126.41;5000970;28;19921;-83
2023/06/06 11:59:41;;;;;;;;;;;;;;;26.71;51.04;101136.41;5019174;28;20243;-82
2023/06/06 12:02:12;;;;;;;;;;;;;;;26.67;51.61;101137.91;5011578;28;20011;-83
2023/06/06 12:04:46;;;;;;;;;;;;;;;26.75;51.45;101126.69;5019074;28;19929;-82
2023/06/06 12:07:12;;;;;;;;;;;;;;;26.64;50.44;101129.16;5001207;28;19922;-81
2023/06/06 12:09:39;;;;;;;;;;;;;;;26.59;51.69;101126.28;5015145;28;19928;-83
2023/06/06 12:12:06;;;;;;;;;;;;;;;26.57;50.89;101128.41;5012068;28;19948;-83
2023/06/06 12:14:34;;;;;;;;;;;;;;;26.58;50.70;101119.19;5004270;28;19925;-83
2023/06/06 12:17:13;;;;;;;;;;;;;;;26.63;51.75;101115.78;4994653;28;19922;-82
2023/06/06 12:19:41;;;;;;;;;;;;;;;26.61;52.50;101117.91;4997031;28;19921;-83
2023/06/06 12:22:09;;;;;;;;;;;;;;;26.66;52.66;101109.88;5011445;28;19925;-83
2023/06/06 12:24:35;;;;;;;;;;;;;;;26.67;52.42;101107.97;5014497;28;20289;-84
2023/06/06 12:27:03;;;;;;;;;;;;;;;26.59;52.64;101104.50;5006954;28;20252;-82
2023/06/06 12:29:33;;;;;;;;;;;;;;;26.87;51.16;101105.81;5004166;28;19976;-82
2023/06/06 12:32:15;;;;;;;;;;;;;;;27.14;50.84;101110.81;5016927;28;19929;-83
2023/06/06 12:34:43;;;;;;;;;;;;;;;27.56;50.25;101110.78;4986216;28;19928;-80
2023/06/06 12:37:10;;;;;;;;;;;;;;;27.84;50.17;101108.19;4980324;28;20011;-82
2023/06/06 12:39:40;;;;;;;;;;;;;;;28.30;49.49;101092.78;4976635;28;20062;-82
2023/06/06 12:42:19;;;;;;;;;;;;;;;28.81;49.60;101092.94;4974556;28;19921;-81
2023/06/06 12:44:46;;;;;;;;;;;;;;;29.18;47.53;101093.34;4980511;28;20190;-82
2023/06/06 12:47:14;;;;;;;;;;;;;;;29.28;45.51;101092.69;4975899;28;20811;-84